Time;durP1;ratioP1;P1;durP2;ratioP2;P2;SDS_P1;SDS_P2;PMS_P1;PMS_P2;Temp;Humidity;BMP_temperature;BMP_pressure;BME280_temperature;BME280_humidity;BME280_pressure;Samples;Min_cycle;Max_cycle;Signal;HPM_P1;HPM_P2
2022/04/23 00:01:32;;;;;;;3.25;2.20;;;20.50;45.10;;;;;;5040445;28;20041;-61
2022/04/23 00:03:58;;;;;;;2.17;1.98;;;20.50;45.10;;;;;;5036256;28;20124;-64
2022/04/23 00:06:23;;;;;;;2.67;1.90;;;20.50;45.10;;;;;;5036280;28;20037;-61
2022/04/23 00:08:49;;;;;;;3.50;2.40;;;20.50;45.10;;;;;;5037090;28;20045;-62
2022/04/23 00:11:14;;;;;;;2.35;2.15;;;20.50;45.10;;;;;;5035523;28;20581;-63
2022/04/23 00:13:40;;;;;;;2.97;2.40;;;20.50;45.10;;;;;;5032823;28;20049;-61
2022/04/23 00:16:06;;;;;;;3.50;2.20;;;20.50;45.10;;;;;;5033705;28;20033;-61
2022/04/23 00:18:31;;;;;;;2.42;2.22;;;20.50;45.00;;;;;;5034874;28;20045;-62
2022/04/23 00:20:57;;;;;;;3.08;2.45;;;20.50;45.00;;;;;;5036509;28;20052;-64
2022/04/23 00:23:23;;;;;;;2.83;2.63;;;20.50;45.10;;;;;;5036022;28;20397;-62
2022/04/23 00:25:52;;;;;;;2.28;2.08;;;20.50;45.00;;;;;;5036925;28;20407;-62
2022/04/23 00:28:18;;;;;;;2.75;2.30;;;20.50;45.00;;;;;;5034398;28;20049;-62
2022/04/23 00:30:45;;;;;;;3.17;2.40;;;20.50;45.00;;;;;;5033079;28;20115;-64
2022/04/23 00:33:10;;;;;;;2.90;2.55;;;20.50;45.00;;;;;;5033701;28;20046;-62
2022/04/23 00:35:36;;;;;;;2.53;2.33;;;20.50;45.00;;;;;;5033965;28;20480;-62
2022/04/23 00:38:03;;;;;;;2.50;2.30;;;20.50;45.00;;;;;;5037248;28;20045;-61
2022/04/23 00:40:30;;;;;;;2.53;2.20;;;20.50;45.00;;;;;;5034893;28;20444;-62
2022/04/23 00:42:58;;;;;;;3.15;2.28;;;20.50;45.10;;;;;;5034797;28;20091;-62
2022/04/23 00:45:25;;;;;;;2.80;2.60;;;20.40;45.00;;;;;;5035635;28;20409;-62
2022/04/23 00:47:51;;;;;;;2.50;2.30;;;20.40;45.00;;;;;;5036297;28;20037;-60
2022/04/23 00:50:23;;;;;;;4.10;2.60;;;20.40;45.00;;;;;;5033350;28;20395;-62
2022/04/23 00:52:50;;;;;;;2.80;2.60;;;20.40;45.00;;;;;;5035628;28;20087;-61
2022/04/23 00:55:17;;;;;;;2.88;2.67;;;20.40;45.00;;;;;;5036602;28;20032;-61
2022/04/23 00:57:43;;;;;;;2.70;2.50;;;20.40;44.90;;;;;;5033338;28;20072;-63
2022/04/23 01:00:09;;;;;;;2.60;2.40;;;20.40;45.00;;;;;;5034215;28;20064;-61
2022/04/23 01:02:38;;;;;;;2.83;2.58;;;20.40;45.00;;;;;;5033145;28;20440;-63
2022/04/23 01:05:08;;;;;;;2.90;2.60;;;20.40;45.00;;;;;;5035633;28;20121;-60
2022/04/23 01:07:40;;;;;;;2.80;2.60;;;20.40;44.90;;;;;;5034293;28;20052;-61
2022/04/23 01:10:07;;;;;;;2.45;2.28;;;20.40;44.90;;;;;;5035007;28;20374;-60
2022/04/23 01:12:35;;;;;;;2.92;2.67;;;20.40;45.00;;;;;;5036381;28;20047;-61
2022/04/23 01:15:03;;;;;;;3.03;2.72;;;20.40;45.00;;;;;;5034913;28;20500;-61
2022/04/23 01:17:29;;;;;;;3.85;2.92;;;20.40;45.00;;;;;;5033093;28;20417;-62
2022/04/23 01:19:55;;;;;;;3.10;2.70;;;20.40;44.90;;;;;;5034439;28;20045;-62
2022/04/23 01:22:23;;;;;;;3.05;2.80;;;20.40;45.00;;;;;;5032950;28;20047;-61
2022/04/23 01:24:50;;;;;;;2.80;2.60;;;20.40;45.00;;;;;;5035146;28;20056;-60
2022/04/23 01:27:16;;;;;;;3.00;2.60;;;20.40;45.00;;;;;;5036186;28;20091;-60
2022/04/23 01:29:42;;;;;;;3.22;2.80;;;20.40;45.00;;;;;;5035214;28;20041;-62
2022/04/23 01:32:08;;;;;;;3.40;3.10;;;20.40;45.00;;;;;;5035453;28;20540;-64
2022/04/23 01:34:33;;;;;;;2.95;2.75;;;20.40;45.00;;;;;;5032656;28;20045;-62
2022/04/23 01:36:59;;;;;;;3.45;3.13;;;20.40;45.00;;;;;;5033023;28;20079;-63
2022/04/23 01:39:24;;;;;;;2.97;2.75;;;20.40;45.10;;;;;;5034240;28;20045;-61
2022/04/23 01:41:50;;;;;;;3.40;3.10;;;20.40;45.00;;;;;;5033830;28;20415;-62
2022/04/23 01:44:15;;;;;;;3.60;3.10;;;20.40;45.00;;;;;;5035201;28;20472;-62
2022/04/23 01:46:41;;;;;;;2.83;2.63;;;20.40;45.00;;;;;;5035673;28;20115;-62
2022/04/23 01:49:07;;;;;;;3.30;3.00;;;20.40;44.90;;;;;;5034036;28;20053;-61
2022/04/23 01:51:32;;;;;;;3.22;3.00;;;20.30;44.90;;;;;;5035113;28;20045;-62
2022/04/23 01:53:58;;;;;;;3.05;2.85;;;20.30;44.90;;;;;;5035460;28;20045;-62
2022/04/23 01:56:24;;;;;;;3.38;3.05;;;20.30;44.90;;;;;;5034996;28;20358;-62
2022/04/23 01:58:50;;;;;;;3.15;2.95;;;20.30;44.90;;;;;;5033885;28;20041;-62
2022/04/23 02:01:17;;;;;;;3.28;2.97;;;20.30;44.90;;;;;;5026628;28;20052;-61
2022/04/23 02:03:43;;;;;;;3.00;2.80;;;20.30;44.90;;;;;;5029857;28;20056;-62
2022/04/23 02:06:09;;;;;;;3.65;3.08;;;20.30;44.90;;;;;;5033154;28;20077;-62
2022/04/23 02:08:34;;;;;;;3.00;2.80;;;20.30;44.90;;;;;;5032209;28;20492;-62
2022/04/23 02:11:00;;;;;;;3.30;3.08;;;20.30;44.90;;;;;;5033783;28;20048;-62
2022/04/23 02:13:27;;;;;;;3.30;3.05;;;20.30;44.90;;;;;;5032161;28;20412;-61
2022/04/23 02:15:52;;;;;;;3.45;3.13;;;20.30;44.90;;;;;;5033421;28;20076;-61
2022/04/23 02:18:21;;;;;;;3.20;2.97;;;20.30;44.90;;;;;;5036066;28;20165;-61
2022/04/23 02:20:47;;;;;;;3.00;2.80;;;20.30;44.90;;;;;;5034063;28;20128;-61
2022/04/23 02:23:12;;;;;;;3.25;2.95;;;20.30;44.90;;;;;;5040580;28;20120;-61
2022/04/23 02:25:38;;;;;;;3.17;2.97;;;20.30;44.90;;;;;;5041556;28;20036;-62
2022/04/23 02:28:03;;;;;;;3.83;3.53;;;20.30;44.90;;;;;;5041940;28;20376;-65
2022/04/23 02:30:30;;;;;;;3.58;3.28;;;20.30;44.80;;;;;;5039937;28;20164;-61
2022/04/23 02:32:56;;;;;;;3.70;3.40;;;20.30;44.90;;;;;;5038902;28;20437;-61
2022/04/23 02:35:21;;;;;;;4.00;3.70;;;20.30;44.90;;;;;;5038330;28;20055;-63
2022/04/23 02:37:48;;;;;;;3.53;3.13;;;20.30;44.80;;;;;;5041870;28;20409;-62
2022/04/23 02:40:15;;;;;;;2.97;2.78;;;20.30;44.80;;;;;;5036679;28;20084;-61
2022/04/23 02:42:41;;;;;;;3.60;3.30;;;20.30;44.80;;;;;;5047413;28;20049;-61
2022/04/23 02:45:09;;;;;;;3.60;3.30;;;20.30;44.80;;;;;;5039763;28;20080;-62
2022/04/23 02:47:43;;;;;;;3.65;3.35;;;20.20;44.80;;;;;;5038261;28;20390;-61
2022/04/23 02:50:11;;;;;;;3.05;2.85;;;20.30;44.80;;;;;;5036767;28;20127;-62
2022/04/23 02:52:40;;;;;;;3.58;3.28;;;20.30;44.80;;;;;;5039034;28;20056;-61
2022/04/23 02:55:06;;;;;;;3.30;3.00;;;20.30;44.80;;;;;;5038306;28;20418;-62
2022/04/23 02:57:31;;;;;;;3.63;3.30;;;20.30;44.90;;;;;;5039194;28;20175;-62
2022/04/23 02:59:57;;;;;;;3.85;3.20;;;20.20;44.80;;;;;;5038351;28;20412;-60
2022/04/23 03:02:23;;;;;;;3.63;3.33;;;20.20;44.80;;;;;;5039184;28;20218;-62
2022/04/23 03:04:48;;;;;;;3.60;3.30;;;20.20;44.80;;;;;;5040396;28;20152;-63
2022/04/23 03:07:14;;;;;;;3.20;2.90;;;20.20;44.80;;;;;;5039529;28;20041;-61
2022/04/23 03:09:39;;;;;;;3.30;3.10;;;20.20;44.80;;;;;;5055346;28;20079;-61
2022/04/23 03:12:05;;;;;;;3.60;3.30;;;20.30;44.80;;;;;;5040188;28;20123;-63
2022/04/23 03:14:32;;;;;;;3.03;2.83;;;20.20;44.80;;;;;;5038206;28;20127;-62
2022/04/23 03:16:58;;;;;;;3.25;2.95;;;20.20;44.70;;;;;;5053357;28;20045;-61
2022/04/23 03:19:24;;;;;;;3.35;3.13;;;20.20;44.70;;;;;;5041847;28;20083;-62
2022/04/23 03:21:49;;;;;;;3.35;3.05;;;20.20;44.70;;;;;;5039061;28;20104;-63
2022/04/23 03:24:15;;;;;;;3.30;3.00;;;20.20;44.70;;;;;;5037643;28;20095;-65
2022/04/23 03:26:41;;;;;;;3.30;3.00;;;20.20;44.70;;;;;;5046137;28;20906;-63
2022/04/23 03:29:07;;;;;;;4.53;3.22;;;20.20;44.70;;;;;;5035819;28;20045;-61
2022/04/23 03:31:32;;;;;;;3.40;3.13;;;20.20;44.80;;;;;;5037883;28;20041;-65
2022/04/23 03:33:58;;;;;;;3.22;3.00;;;20.20;44.70;;;;;;5035977;28;20041;-64
2022/04/23 03:36:24;;;;;;;3.53;3.22;;;20.20;44.80;;;;;;5038188;28;20083;-63
2022/04/23 03:38:49;;;;;;;3.28;2.97;;;20.20;44.70;;;;;;5037728;28;20037;-63
2022/04/23 03:41:15;;;;;;;3.33;3.03;;;20.20;44.70;;;;;;5036577;28;20120;-61
2022/04/23 03:43:40;;;;;;;3.47;3.17;;;20.20;44.70;;;;;;5035070;28;20076;-62
2022/04/23 03:46:06;;;;;;;3.58;3.28;;;20.20;44.70;;;;;;5035457;28;20036;-61
2022/04/23 03:48:32;;;;;;;3.00;2.80;;;20.20;44.70;;;;;;5035210;28;20037;-60
2022/04/23 03:50:57;;;;;;;2.80;2.60;;;20.20;44.70;;;;;;5036345;28;20397;-62
2022/04/23 03:53:23;;;;;;;3.72;3.10;;;20.20;44.60;;;;;;5037033;28;20053;-61
2022/04/23 03:55:48;;;;;;;3.03;2.83;;;20.20;44.70;;;;;;5036152;28;20424;-63
2022/04/23 03:58:14;;;;;;;3.47;3.17;;;20.20;44.70;;;;;;5035886;28;20114;-62
2022/04/23 04:00:40;;;;;;;3.13;2.92;;;20.20;44.70;;;;;;5032901;28;20051;-65
2022/04/23 04:03:05;;;;;;;3.22;3.03;;;20.20;44.60;;;;;;5030855;28;20468;-64
2022/04/23 04:05:31;;;;;;;3.33;3.13;;;20.20;44.60;;;;;;5032158;28;20124;-62
2022/04/23 04:07:57;;;;;;;3.53;3.15;;;20.20;44.60;;;;;;5036160;28;20060;-61
2022/04/23 04:10:23;;;;;;;3.17;2.88;;;20.20;44.60;;;;;;5035718;28;20347;-61
2022/04/23 04:12:50;;;;;;;3.40;3.10;;;20.20;44.60;;;;;;5034749;28;20436;-62
2022/04/23 04:15:16;;;;;;;3.10;2.88;;;20.10;44.60;;;;;;5049760;28;20084;-61
2022/04/23 04:17:47;;;;;;;3.60;3.30;;;20.10;44.50;;;;;;5034582;28;20130;-64
2022/04/23 04:20:13;;;;;;;3.15;2.92;;;20.10;44.50;;;;;;5028803;28;20049;-60
2022/04/23 04:22:43;;;;;;;3.10;2.90;;;20.10;44.50;;;;;;5034893;28;20124;-61
2022/04/23 04:25:09;;;;;;;2.85;2.65;;;20.10;44.50;;;;;;5034876;28;20127;-64
2022/04/23 04:27:36;;;;;;;3.70;3.08;;;20.10;44.60;;;;;;5035915;28;20699;-62
2022/04/23 04:30:07;;;;;;;3.55;2.97;;;20.10;44.60;;;;;;5035680;28;20683;-62
2022/04/23 04:32:33;;;;;;;3.22;2.95;;;20.10;44.50;;;;;;5034256;28;20049;-61
2022/04/23 04:34:59;;;;;;;3.30;3.00;;;20.10;44.50;;;;;;5032698;28;20041;-62
2022/04/23 04:37:25;;;;;;;2.92;2.70;;;20.10;44.50;;;;;;5036140;28;20052;-61
2022/04/23 04:39:51;;;;;;;3.60;3.30;;;20.10;44.50;;;;;;5031647;28;20038;-61
2022/04/23 04:42:16;;;;;;;3.38;3.08;;;20.10;44.50;;;;;;5032847;28;20170;-61
2022/04/23 04:44:42;;;;;;;2.83;2.63;;;20.10;44.50;;;;;;5037441;28;20477;-63
2022/04/23 04:47:09;;;;;;;3.55;3.25;;;20.10;44.50;;;;;;5034747;28;20045;-62
2022/04/23 04:49:35;;;;;;;3.20;3.00;;;20.10;44.50;;;;;;5036396;28;20060;-64
2022/04/23 04:52:01;;;;;;;2.92;2.60;;;20.10;44.50;;;;;;5031409;28;20080;-61
2022/04/23 04:54:26;;;;;;;3.28;2.97;;;20.10;44.40;;;;;;5034804;28;20478;-61
2022/04/23 04:56:53;;;;;;;3.17;2.92;;;20.10;44.50;;;;;;5035710;28;20041;-62
2022/04/23 04:59:22;;;;;;;2.97;2.78;;;20.10;44.40;;;;;;5034667;28;20036;-62
2022/04/23 05:01:49;;;;;;;3.00;2.75;;;20.10;44.50;;;;;;5033521;28;20135;-60
2022/04/23 05:04:14;;;;;;;3.10;2.90;;;20.10;44.40;;;;;;5033114;28;20045;-63
2022/04/23 05:06:40;;;;;;;3.15;2.78;;;20.10;44.30;;;;;;5033163;28;20114;-60
2022/04/23 05:09:05;;;;;;;2.75;2.55;;;20.10;44.40;;;;;;5032266;28;20053;-63
2022/04/23 05:11:32;;;;;;;3.25;3.05;;;20.10;44.40;;;;;;5036200;28;20432;-60
2022/04/23 05:13:57;;;;;;;2.90;2.70;;;20.10;44.30;;;;;;5032858;28;20037;-62
2022/04/23 05:16:23;;;;;;;3.13;2.85;;;20.10;44.30;;;;;;5034493;28;20039;-61
2022/04/23 05:18:49;;;;;;;3.10;2.90;;;20.10;44.30;;;;;;5035786;28;20046;-61
2022/04/23 05:21:14;;;;;;;3.05;2.85;;;20.10;44.30;;;;;;5031478;28;20033;-63
2022/04/23 05:23:40;;;;;;;2.83;2.63;;;20.00;44.30;;;;;;5034597;28;20075;-63
2022/04/23 05:26:06;;;;;;;3.05;2.80;;;20.00;44.30;;;;;;5034691;28;20106;-62
2022/04/23 05:28:32;;;;;;;3.08;2.88;;;20.00;44.20;;;;;;5039791;28;20406;-61
2022/04/23 05:30:58;;;;;;;3.03;2.75;;;20.00;44.20;;;;;;5033448;28;20045;-62
2022/04/23 05:33:24;;;;;;;2.97;2.78;;;20.00;44.20;;;;;;5033811;28;20076;-61
2022/04/23 05:35:50;;;;;;;3.20;2.97;;;20.00;44.30;;;;;;5032489;28;20045;-61
2022/04/23 05:38:20;;;;;;;2.90;2.70;;;20.00;44.20;;;;;;5035157;28;20108;-63
2022/04/23 05:40:46;;;;;;;2.70;2.50;;;20.00;44.20;;;;;;5033916;28;20032;-62
2022/04/23 05:43:11;;;;;;;3.08;2.88;;;20.00;44.20;;;;;;5034406;28;20055;-61
2022/04/23 05:45:37;;;;;;;3.03;2.75;;;20.00;44.20;;;;;;5035459;28;20067;-61
2022/04/23 05:48:02;;;;;;;2.90;2.70;;;20.00;44.20;;;;;;5033984;28;20044;-61
2022/04/23 05:50:28;;;;;;;2.90;2.70;;;20.00;44.20;;;;;;5033185;28;20393;-61
2022/04/23 05:52:55;;;;;;;2.85;2.60;;;20.00;44.10;;;;;;5034188;28;20044;-61
2022/04/23 05:55:20;;;;;;;2.85;2.65;;;20.00;44.10;;;;;;5033339;28;20063;-65
2022/04/23 05:57:47;;;;;;;2.85;2.65;;;20.00;44.20;;;;;;5032355;28;20500;-62
2022/04/23 06:00:13;;;;;;;2.83;2.63;;;20.00;44.10;;;;;;5034981;28;20071;-61
2022/04/23 06:02:39;;;;;;;3.85;2.30;;;20.00;44.20;;;;;;5034991;28;20226;-60
2022/04/23 06:05:05;;;;;;;2.60;2.40;;;20.00;44.20;;;;;;5033295;28;20523;-61
2022/04/23 06:07:31;;;;;;;2.60;2.40;;;20.00;44.20;;;;;;5032276;28;20215;-63
2022/04/23 06:09:57;;;;;;;4.35;2.80;;;20.00;44.20;;;;;;5032598;28;20128;-65
2022/04/23 06:12:22;;;;;;;2.80;2.58;;;20.00;44.40;;;;;;5027736;28;20037;-64
2022/04/23 06:14:51;;;;;;;7.13;2.83;;;20.00;44.60;;;;;;5029548;28;20041;-64
2022/04/23 06:17:27;;;;;;;3.45;3.13;;;20.00;44.50;;;;;;5031756;28;20132;-65
2022/04/23 06:19:53;;;;;;;4.07;3.53;;;20.00;44.40;;;;;;5032885;28;20076;-63
2022/04/23 06:22:19;;;;;;;4.18;3.17;;;20.00;45.10;;;;;;5034860;28;20056;-61
2022/04/23 06:24:45;;;;;;;3.15;2.95;;;20.10;44.20;;;;;;5031376;28;20085;-64
2022/04/23 06:27:11;;;;;;;5.05;3.28;;;20.10;44.10;;;;;;5032930;28;20114;-62
2022/04/23 06:29:38;;;;;;;5.13;2.97;;;20.10;44.00;;;;;;5033717;28;20039;-61
2022/04/23 06:32:04;;;;;;;3.97;3.38;;;20.10;44.10;;;;;;5031169;28;20049;-61
2022/04/23 06:34:29;;;;;;;3.85;3.55;;;20.10;44.20;;;;;;5033296;28;20056;-62
2022/04/23 06:36:55;;;;;;;3.67;3.38;;;20.10;44.00;;;;;;5031794;28;20285;-63
2022/04/23 06:39:20;;;;;;;3.58;3.30;;;20.10;43.80;;;;;;5030730;28;20041;-63
2022/04/23 06:41:46;;;;;;;3.88;3.58;;;20.10;44.00;;;;;;5034770;28;20052;-61
2022/04/23 06:44:11;;;;;;;3.92;3.55;;;20.10;43.60;;;;;;5031878;28;20095;-62
2022/04/23 06:46:37;;;;;;;3.70;3.20;;;20.10;43.60;;;;;;5033473;28;20076;-62
2022/04/23 06:49:05;;;;;;;4.95;3.20;;;20.10;43.90;;;;;;5031766;28;20041;-62
2022/04/23 06:51:31;;;;;;;3.78;3.33;;;20.10;44.00;;;;;;5033008;28;20049;-62
2022/04/23 06:53:57;;;;;;;7.15;3.67;;;20.10;44.00;;;;;;5034208;28;20072;-63
2022/04/23 06:56:22;;;;;;;3.28;2.95;;;20.10;44.10;;;;;;5035348;28;21208;-62
2022/04/23 06:58:48;;;;;;;3.80;3.50;;;20.10;43.70;;;;;;5033837;28;20895;-62
2022/04/23 07:01:15;;;;;;;4.10;3.70;;;20.10;43.50;;;;;;5033295;28;20072;-62
2022/04/23 07:03:40;;;;;;;3.55;3.13;;;20.10;43.40;;;;;;5033051;28;20072;-61
2022/04/23 07:06:06;;;;;;;3.78;3.45;;;20.10;43.30;;;;;;5036895;28;20158;-61
2022/04/23 07:08:32;;;;;;;5.45;3.70;;;20.10;43.40;;;;;;5037017;28;20047;-63
2022/04/23 07:10:58;;;;;;;4.95;3.45;;;20.10;43.50;;;;;;5035538;28;20049;-61
2022/04/23 07:13:25;;;;;;;3.85;3.50;;;20.10;43.60;;;;;;5033544;28;20072;-62
2022/04/23 07:15:51;;;;;;;4.20;3.83;;;20.10;43.80;;;;;;5035131;28;20092;-60
2022/04/23 07:18:16;;;;;;;4.50;4.05;;;20.10;43.90;;;;;;5034537;28;20065;-62
2022/04/23 07:20:42;;;;;;;3.95;3.60;;;20.20;43.90;;;;;;5038628;28;20355;-62
2022/04/23 07:25:52;;;;;;;6.45;4.03;;;20.10;43.40;;;;;;5036637;28;20040;-62
2022/04/23 07:28:22;;;;;;;4.30;3.90;;;20.20;43.50;;;;;;5035332;28;20041;-62
2022/04/23 07:30:48;;;;;;;4.25;3.88;;;20.20;43.30;;;;;;5035758;28;20057;-62
2022/04/23 07:37:28;;;;;;;5.47;4.30;;;20.10;43.30;;;;;;5036466;28;20107;-61
2022/04/23 07:38:43;;;;;;;5.05;4.25;;;20.10;43.00;;;;;;5034183;28;20048;-64
2022/04/23 07:41:09;;;;;;;4.90;4.50;;;20.10;43.10;;;;;;5034199;28;20037;-61
2022/04/23 07:43:35;;;;;;;4.50;4.20;;;20.10;43.30;;;;;;5035286;28;20087;-63
2022/04/23 07:46:00;;;;;;;5.30;4.90;;;20.10;43.10;;;;;;5036138;28;20037;-61
2022/04/23 07:48:26;;;;;;;4.70;4.30;;;20.10;43.60;;;;;;5037950;28;20091;-62
2022/04/23 07:50:52;;;;;;;7.35;5.18;;;20.10;42.80;;;;;;5035933;28;20041;-60
2022/04/23 07:53:17;;;;;;;4.90;4.50;;;20.10;42.70;;;;;;5036741;28;20044;-62
2022/04/23 07:55:43;;;;;;;4.90;4.40;;;20.10;42.70;;;;;;5035354;28;20556;-63
2022/04/23 07:58:09;;;;;;;5.00;4.60;;;20.10;42.60;;;;;;5031161;28;20856;-66
2022/04/23 08:00:36;;;;;;;5.20;4.70;;;20.10;43.00;;;;;;5033156;28;20037;-63
2022/04/23 08:03:05;;;;;;;4.45;4.13;;;20.10;42.90;;;;;;5035330;28;20055;-61
2022/04/23 08:05:33;;;;;;;5.05;4.53;;;20.10;42.90;;;;;;5037415;28;20041;-61
2022/04/23 08:07:59;;;;;;;5.28;4.80;;;20.10;43.00;;;;;;5034246;28;20044;-62
2022/04/23 08:10:25;;;;;;;6.75;4.80;;;20.10;42.90;;;;;;5033969;28;20669;-65
2022/04/23 08:12:51;;;;;;;5.93;5.10;;;20.10;42.80;;;;;;5037290;28;20386;-63
2022/04/23 08:15:17;;;;;;;4.78;4.20;;;20.10;42.80;;;;;;5034873;28;20048;-62
2022/04/23 08:17:42;;;;;;;12.90;6.30;;;20.10;42.90;;;;;;5032880;28;20116;-62
2022/04/23 08:20:09;;;;;;;8.77;5.63;;;20.10;42.70;;;;;;5033048;28;20652;-62
2022/04/23 08:22:35;;;;;;;16.15;7.57;;;20.10;43.00;;;;;;5033156;28;20067;-65
2022/04/23 08:25:02;;;;;;;10.65;6.63;;;20.10;43.10;;;;;;5032421;28;20044;-63
2022/04/23 08:27:28;;;;;;;11.13;6.93;;;20.20;43.20;;;;;;5029939;28;21045;-63
2022/04/23 08:32:38;;;;;;;9.70;5.93;;;20.20;43.10;;;;;;5031161;28;20065;-62
2022/04/23 08:35:05;;;;;;;11.30;7.93;;;20.20;43.10;;;;;;5033142;28;20398;-63
2022/04/23 08:37:32;;;;;;;14.90;8.55;;;20.20;43.30;;;;;;5034866;28;20033;-61
2022/04/23 08:39:58;;;;;;;14.32;8.98;;;20.20;43.20;;;;;;5036003;28;20033;-62
2022/04/23 08:42:23;;;;;;;17.63;8.80;;;20.20;43.20;;;;;;5035856;28;20068;-62
2022/04/23 08:44:52;;;;;;;15.98;9.07;;;20.20;43.20;;;;;;5036448;28;20056;-63
2022/04/23 08:47:24;;;;;;;19.13;10.02;;;20.20;43.20;;;;;;5034619;28;20067;-64
2022/04/23 08:49:54;;;;;;;20.33;10.00;;;20.10;43.20;;;;;;5034246;28;20046;-61
2022/04/23 08:52:32;;;;;;;14.98;8.70;;;20.20;43.30;;;;;;5036023;28;20120;-63
2022/04/23 08:55:03;;;;;;;14.95;9.00;;;20.20;43.40;;;;;;5035458;28;20077;-62
2022/04/23 08:57:29;;;;;;;15.57;8.70;;;20.20;43.60;;;;;;5034282;28;20033;-61
2022/04/23 08:59:56;;;;;;;14.77;8.65;;;20.20;44.40;;;;;;5034084;28;20041;-62
2022/04/23 09:02:23;;;;;;;16.35;8.70;;;20.20;43.50;;;;;;5034599;28;20488;-60
2022/04/23 09:04:50;;;;;;;12.13;8.40;;;20.20;43.50;;;;;;5032792;28;20048;-61
2022/04/23 09:07:20;;;;;;;19.73;9.00;;;20.20;43.50;;;;;;5031484;28;20052;-62
2022/04/23 09:09:53;;;;;;;20.70;9.57;;;20.20;43.50;;;;;;5032144;28;20123;-64
2022/04/23 09:12:24;;;;;;;15.63;8.98;;;20.20;43.50;;;;;;5033493;28;20119;-60
2022/04/23 09:14:50;;;;;;;13.93;7.97;;;20.20;43.30;;;;;;5031243;28;20117;-62
2022/04/23 09:25:40;;;;;;;8.50;6.70;;;20.20;43.00;;;;;;5047092;28;20057;-62
2022/04/23 09:28:19;;;;;;;8.43;6.28;;;20.20;42.70;;;;;;5034089;28;20103;-61
2022/04/23 09:30:48;;;;;;;7.32;6.05;;;20.20;42.90;;;;;;5034853;28;20558;-63
2022/04/23 09:33:14;;;;;;;10.07;6.07;;;20.20;42.90;;;;;;5033214;28;20136;-66
2022/04/23 09:36:04;;;;;;;11.32;6.57;;;20.20;42.90;;;;;;5034688;28;20077;-63
2022/04/23 09:38:31;;;;;;;8.68;6.45;;;20.10;42.90;;;;;;5031032;28;20114;-65
2022/04/23 09:41:15;;;;;;;11.10;6.72;;;20.20;43.10;;;;;;5031146;28;20124;-63
2022/04/23 09:43:45;;;;;;;10.63;6.28;;;20.20;43.50;;;;;;5035813;28;20779;-62
2022/04/23 09:46:11;;;;;;;8.40;5.93;;;20.20;43.50;;;;;;5031641;28;20041;-63
2022/04/23 09:48:43;;;;;;;8.95;5.70;;;20.20;43.40;;;;;;5032668;28;20428;-62
2022/04/23 09:51:24;;;;;;;13.82;6.00;;;20.20;43.40;;;;;;5030559;28;20452;-63
2022/04/23 09:53:53;;;;;;;7.13;5.38;;;20.20;43.30;;;;;;5047404;28;20489;-63
2022/04/23 09:56:21;;;;;;;6.75;5.60;;;20.10;43.40;;;;;;5033737;28;20037;-62
2022/04/23 09:58:47;;;;;;;10.50;5.80;;;20.20;43.40;;;;;;5030117;28;20033;-63
2022/04/23 10:01:13;;;;;;;7.38;5.53;;;20.20;43.40;;;;;;5034551;28;20038;-62
2022/04/23 10:03:44;;;;;;;6.25;5.38;;;20.20;43.40;;;;;;5034036;28;20155;-62
2022/04/23 10:06:12;;;;;;;6.32;5.38;;;20.20;43.40;;;;;;5033932;28;20055;-64
2022/04/23 10:08:43;;;;;;;5.97;5.30;;;20.20;43.20;;;;;;5034674;28;20036;-61
2022/04/23 10:11:27;;;;;;;8.95;5.07;;;20.10;43.10;;;;;;5039408;28;20077;-65
2022/04/23 10:14:03;;;;;;;6.63;5.30;;;20.20;43.10;;;;;;5033044;28;20464;-62
2022/04/23 10:16:33;;;;;;;7.20;4.97;;;20.20;42.90;;;;;;5032949;28;20037;-62
2022/04/23 10:19:00;;;;;;;6.13;4.80;;;20.20;42.90;;;;;;5032246;28;20064;-62
2022/04/23 10:21:44;;;;;;;5.75;5.00;;;20.20;42.90;;;;;;5034404;28;20456;-61
2022/04/23 10:24:20;;;;;;;5.55;4.97;;;20.20;42.70;;;;;;5032799;28;20063;-65
2022/04/23 10:26:51;;;;;;;6.28;5.30;;;20.20;42.60;;;;;;5032997;28;20037;-62
2022/04/23 10:29:26;;;;;;;6.03;5.32;;;20.20;42.50;;;;;;5039837;28;20071;-64
2022/04/23 10:32:11;;;;;;;4.80;4.40;;;20.20;42.40;;;;;;5045844;28;20145;-63
2022/04/23 10:34:37;;;;;;;5.20;4.70;;;20.20;42.40;;;;;;5031725;28;20119;-62
2022/04/23 10:37:16;;;;;;;5.38;4.63;;;20.10;42.40;;;;;;5030534;28;20091;-61
2022/04/23 10:39:42;;;;;;;4.70;4.30;;;20.10;42.10;;;;;;5037005;28;20459;-62
2022/04/23 10:42:13;;;;;;;5.15;4.75;;;20.20;42.20;;;;;;5034186;28;20090;-63
2022/04/23 10:44:40;;;;;;;5.85;4.85;;;20.10;42.10;;;;;;5034676;28;20122;-63
2022/04/23 10:47:16;;;;;;;5.68;5.18;;;20.10;42.30;;;;;;5034965;28;20069;-62
2022/04/23 10:49:42;;;;;;;5.45;4.95;;;20.20;42.50;;;;;;5036816;28;20040;-63
2022/04/23 10:52:07;;;;;;;6.97;5.93;;;20.20;42.60;;;;;;5038040;28;20044;-62
2022/04/23 10:54:54;;;;;;;6.75;5.05;;;20.20;42.60;;;;;;5041294;28;20045;-62
2022/04/23 10:57:19;;;;;;;5.00;4.50;;;20.20;42.80;;;;;;5035861;28;20053;-66
2022/04/23 10:59:47;;;;;;;8.05;5.00;;;20.20;42.90;;;;;;5038759;28;20037;-64
2022/04/23 11:02:19;;;;;;;5.07;4.68;;;20.20;42.90;;;;;;5037675;28;20409;-61
2022/04/23 11:13:31;;;;;;;7.07;5.20;;;20.20;42.90;;;;;;5050070;28;20059;-63
2022/04/23 11:16:20;;;;;;;7.03;4.80;;;20.20;43.10;;;;;;5039020;28;20079;-64
2022/04/23 11:18:48;;;;;;;7.05;4.88;;;20.20;42.90;;;;;;5035661;28;20025;-63
2022/04/23 11:21:26;;;;;;;5.55;5.05;;;20.20;43.00;;;;;;5033751;28;20044;-62
2022/04/23 11:23:54;;;;;;;5.97;5.13;;;20.10;43.00;;;;;;5034706;28;20535;-62
2022/04/23 11:26:26;;;;;;;5.93;4.72;;;20.20;42.90;;;;;;5033918;28;20140;-64
2022/04/23 11:28:59;;;;;;;7.60;5.22;;;20.20;43.00;;;;;;5031127;28;20106;-62
2022/04/23 11:31:27;;;;;;;6.38;4.60;;;20.20;42.80;;;;;;5034204;28;20053;-63
2022/04/23 11:33:54;;;;;;;6.30;4.60;;;20.20;43.30;;;;;;5036181;28;20071;-64
2022/04/23 11:36:31;;;;;;;5.30;4.80;;;20.20;42.60;;;;;;5042005;28;20144;-65
2022/04/23 11:38:59;;;;;;;9.23;5.20;;;20.20;42.60;;;;;;5035374;28;20099;-65
2022/04/23 11:41:36;;;;;;;6.50;5.00;;;20.20;42.50;;;;;;5036319;28;20036;-63
2022/04/23 11:44:20;;;;;;;5.65;4.95;;;20.20;42.20;;;;;;5035942;28;20072;-64
2022/04/23 11:46:48;;;;;;;5.22;4.80;;;20.20;42.10;;;;;;5035818;28;20086;-62
2022/04/23 11:49:27;;;;;;;6.95;4.60;;;20.10;42.10;;;;;;5036734;28;20067;-64
2022/04/23 11:52:12;;;;;;;4.78;4.38;;;20.20;42.00;;;;;;5032942;28;20036;-68
2022/04/23 11:54:38;;;;;;;4.82;4.40;;;20.20;42.20;;;;;;5035507;28;20040;-62
2022/04/23 11:57:07;;;;;;;7.25;5.30;;;20.20;43.10;;;;;;5036540;28;20044;-62
2022/04/23 11:59:46;;;;;;;5.63;5.07;;;20.20;42.40;;;;;;5035962;28;20056;-63
2022/04/23 12:02:23;;;;;;;5.07;4.53;;;20.20;42.30;;;;;;5035808;28;20038;-62
2022/04/23 12:04:53;;;;;;;6.88;5.45;;;20.20;42.30;;;;;;5035250;28;20040;-62
2022/04/23 12:07:20;;;;;;;5.32;4.75;;;20.20;42.30;;;;;;5034912;28;20041;-61
2022/04/23 12:10:04;;;;;;;5.43;4.70;;;20.20;42.20;;;;;;5033548;28;21091;-62
2022/04/23 12:12:32;;;;;;;6.10;5.15;;;20.20;42.50;;;;;;5032921;28;20048;-62
2022/04/23 12:15:04;;;;;;;4.88;4.40;;;20.20;42.70;;;;;;5037052;28;20490;-64
2022/04/23 12:17:30;;;;;;;6.30;5.28;;;20.20;42.70;;;;;;5035327;28;20048;-63
2022/04/23 12:20:10;;;;;;;5.40;4.90;;;20.20;42.90;;;;;;5033995;28;20037;-63
2022/04/23 12:22:36;;;;;;;4.93;4.47;;;20.20;43.00;;;;;;5034185;28;20496;-65
2022/04/23 12:25:08;;;;;;;5.85;4.68;;;20.20;43.10;;;;;;5036012;28;20037;-61
2022/04/23 12:28:02;;;;;;;4.53;4.18;;;20.20;43.10;;;;;;5034879;28;20102;-60
2022/04/23 12:42:03;;;;;;;6.38;4.22;;;20.20;43.10;;;;;;5034887;28;20103;-61
2022/04/23 12:44:42;;;;;;;5.72;4.47;;;20.20;43.00;;;;;;5033814;28;20109;-63
2022/04/23 12:47:09;;;;;;;5.32;4.25;;;20.20;43.00;;;;;;5034197;28;20561;-62
2022/04/23 12:49:55;;;;;;;6.55;4.50;;;20.20;43.00;;;;;;5034400;28;20091;-62
2022/04/23 12:52:23;;;;;;;7.90;4.15;;;20.30;43.00;;;;;;5035346;28;20091;-62
2022/04/23 12:55:21;;;;;;;6.82;4.45;;;20.20;42.90;;;;;;5036110;28;20041;-62
2022/04/23 12:57:52;;;;;;;8.15;4.80;;;20.30;42.90;;;;;;5033557;28;20041;-65
2022/04/23 13:00:20;;;;;;;5.60;4.45;;;20.20;42.80;;;;;;5034860;28;20388;-62
2022/04/23 13:02:48;;;;;;;5.88;4.32;;;20.30;42.80;;;;;;5032581;28;20623;-63
2022/04/23 13:05:13;;;;;;;6.00;4.00;;;20.20;42.70;;;;;;5032811;28;20048;-61
2022/04/23 13:10:24;;;;;;;4.13;3.72;;;20.30;42.70;;;;;;5033965;28;20099;-61
2022/04/23 13:12:49;;;;;;;4.57;3.97;;;20.30;42.60;;;;;;5034157;28;20041;-62
2022/04/23 13:15:18;;;;;;;5.55;4.25;;;20.30;42.60;;;;;;5034319;28;20066;-63
2022/04/23 13:17:46;;;;;;;4.78;4.20;;;20.30;42.50;;;;;;5032780;28;20129;-62
2022/04/23 13:20:14;;;;;;;4.65;3.83;;;20.30;42.40;;;;;;5032689;28;20086;-63
2022/04/23 13:22:41;;;;;;;4.53;3.72;;;20.30;42.30;;;;;;5031890;28;20049;-62
2022/04/23 13:25:07;;;;;;;4.10;3.67;;;20.30;42.30;;;;;;5034332;28;20127;-63
2022/04/23 13:27:33;;;;;;;6.45;3.88;;;20.40;42.30;;;;;;5033546;28;20066;-62
2022/04/23 13:29:59;;;;;;;4.75;3.75;;;20.30;42.10;;;;;;5033311;28;20495;-61